Time;durP1;ratioP1;P1;durP2;ratioP2;P2;SDS_P1;SDS_P2;PMS_P1;PMS_P2;Temp;Humidity;BMP_temperature;BMP_pressure;BME280_temperature;BME280_humidity;BME280_pressure;Samples;Min_cycle;Max_cycle;Signal;HPM_P1;HPM_P2
2022/01/07 00:02:04;;;;;;;16.60;6.87;;;;;;;3.13;76.98;101396.94;5061595;28;20111;-61
2022/01/07 00:04:32;;;;;;;18.33;6.40;;;;;;;3.13;76.85;101402.19;5060916;28;20057;-61
2022/01/07 00:06:57;;;;;;;14.97;6.17;;;;;;;3.14;76.40;101394.19;5057446;28;20035;-61
2022/01/07 00:09:23;;;;;;;14.60;6.57;;;;;;;3.12;76.73;101398.72;5065236;28;20036;-61
2022/01/07 00:11:48;;;;;;;13.70;6.73;;;;;;;3.07;76.88;101395.59;5064113;28;20064;-61
2022/01/07 00:14:13;;;;;;;12.73;5.97;;;;;;;2.99;77.25;101387.44;5062976;28;20097;-61
2022/01/07 00:16:38;;;;;;;15.70;6.50;;;;;;;2.96;77.58;101388.50;5063299;28;20085;-61
2022/01/07 00:19:04;;;;;;;13.73;6.23;;;;;;;2.91;77.99;101376.66;5059017;28;20495;-61
2022/01/07 00:21:29;;;;;;;13.30;6.00;;;;;;;2.89;78.03;101368.88;5062366;28;20052;-61
2022/01/07 00:23:55;;;;;;;15.60;6.47;;;;;;;2.86;78.33;101370.84;5058047;28;20120;-60
2022/01/07 00:26:20;;;;;;;13.20;6.23;;;;;;;2.83;78.40;101368.44;5061707;28;20044;-61
2022/01/07 00:28:46;;;;;;;12.87;5.53;;;;;;;2.77;78.53;101360.06;5067903;28;20035;-60
2022/01/07 00:31:11;;;;;;;13.17;6.13;;;;;;;2.78;78.67;101366.16;5056521;28;20033;-61
2022/01/07 00:33:38;;;;;;;13.40;6.07;;;;;;;2.78;78.68;101358.28;5058550;28;20025;-61
2022/01/07 00:36:03;;;;;;;14.97;6.17;;;;;;;2.77;79.11;101351.38;5063616;28;20032;-60
2022/01/07 00:38:30;;;;;;;17.87;6.10;;;;;;;2.76;79.31;101352.31;5057745;28;20579;-60
2022/01/07 00:40:56;;;;;;;12.23;6.20;;;;;;;2.71;79.62;101351.81;5062819;28;20106;-60
2022/01/07 00:43:21;;;;;;;18.30;6.40;;;;;;;2.65;80.11;101337.34;5063419;28;20171;-60
2022/01/07 00:45:46;;;;;;;15.70;6.77;;;;;;;2.56;80.35;101326.66;5055553;28;20032;-60
2022/01/07 00:48:12;;;;;;;12.97;5.80;;;;;;;2.53;80.75;101319.84;5061582;28;20488;-60
2022/01/07 00:50:37;;;;;;;11.43;6.30;;;;;;;2.51;81.03;101320.88;5067215;28;20032;-58
2022/01/07 00:53:02;;;;;;;16.23;6.17;;;;;;;2.51;81.32;101307.78;5062075;28;20028;-58
2022/01/07 00:55:28;;;;;;;12.93;6.20;;;;;;;2.51;81.42;101305.16;5060715;28;20094;-58
2022/01/07 00:57:54;;;;;;;12.50;5.77;;;;;;;2.51;81.69;101284.19;5062990;28;20029;-58
2022/01/07 01:00:22;;;;;;;13.07;5.33;;;;;;;2.52;81.57;101293.72;5055669;28;20021;-58
2022/01/07 01:02:47;;;;;;;13.93;6.03;;;;;;;2.54;81.86;101289.22;5058999;28;20029;-58
2022/01/07 01:05:15;;;;;;;10.40;5.57;;;;;;;2.56;81.69;101290.78;5055025;28;20036;-57
2022/01/07 01:07:41;;;;;;;15.30;6.00;;;;;;;2.57;81.73;101291.63;5052683;28;20396;-58
2022/01/07 01:10:07;;;;;;;14.03;5.80;;;;;;;2.60;81.64;101279.16;5056599;28;20040;-58
2022/01/07 01:12:38;;;;;;;16.57;6.27;;;;;;;2.61;81.41;101280.00;5059764;28;20159;-58
2022/01/07 01:15:05;;;;;;;15.97;6.53;;;;;;;2.61;81.56;101272.97;5068639;28;20396;-58
2022/01/07 01:17:30;;;;;;;15.30;5.87;;;;;;;2.63;81.72;101262.38;5064976;28;20495;-58
2022/01/07 01:19:55;;;;;;;15.27;5.93;;;;;;;2.64;81.23;101270.13;5062089;28;20037;-58
2022/01/07 01:22:21;;;;;;;10.13;5.40;;;;;;;2.66;81.23;101262.97;5057069;28;20039;-58
2022/01/07 01:24:46;;;;;;;15.10;5.97;;;;;;;2.68;81.11;101266.34;5056797;28;20035;-58
2022/01/07 01:27:11;;;;;;;14.30;5.90;;;;;;;2.67;81.21;101256.78;5063034;28;20027;-58
2022/01/07 01:29:37;;;;;;;16.20;5.63;;;;;;;2.70;80.99;101261.81;5055639;28;20551;-58
2022/01/07 01:32:03;;;;;;;13.40;5.37;;;;;;;2.71;80.89;101249.53;5054040;28;20091;-58
2022/01/07 01:34:29;;;;;;;12.03;6.00;;;;;;;2.72;81.22;101252.06;5056967;28;20024;-58
2022/01/07 01:36:54;;;;;;;10.67;5.13;;;;;;;2.73;81.15;101256.34;5066456;28;20506;-58
2022/01/07 01:39:19;;;;;;;12.83;5.67;;;;;;;2.76;80.36;101253.50;5057481;28;20048;-58
2022/01/07 01:41:45;;;;;;;13.40;5.03;;;;;;;2.77;80.40;101225.50;5061978;28;20064;-58
2022/01/07 01:44:10;;;;;;;10.00;4.60;;;;;;;2.80;80.42;101231.34;5059466;28;20558;-58
2022/01/07 01:46:36;;;;;;;10.07;4.73;;;;;;;2.82;80.14;101220.75;5063885;28;20035;-58
2022/01/07 01:49:03;;;;;;;11.47;4.43;;;;;;;2.84;80.21;101218.84;5059525;28;20032;-58
2022/01/07 01:51:28;;;;;;;13.57;4.57;;;;;;;2.85;79.91;101215.28;5052033;28;20025;-57
2022/01/07 01:53:54;;;;;;;10.77;4.43;;;;;;;2.87;80.00;101220.41;5059153;28;20285;-58
2022/01/07 01:56:19;;;;;;;10.13;4.37;;;;;;;2.85;80.00;101228.38;5064592;28;20074;-58
2022/01/07 01:58:44;;;;;;;12.73;3.93;;;;;;;2.76;80.20;101218.56;5056619;28;20508;-58
2022/01/07 02:01:10;;;;;;;12.73;4.17;;;;;;;2.63;81.09;101216.00;5056493;28;20036;-58
2022/01/07 02:03:35;;;;;;;15.27;4.13;;;;;;;2.57;81.17;101212.97;5058741;28;20082;-58
2022/01/07 02:06:00;;;;;;;10.50;4.07;;;;;;;2.59;81.14;101213.69;5060128;28;20120;-58
2022/01/07 02:08:26;;;;;;;12.07;4.23;;;;;;;2.65;81.13;101206.25;5062054;28;20024;-58
2022/01/07 02:10:51;;;;;;;9.63;4.13;;;;;;;2.71;80.85;101197.94;5055333;28;20036;-58
2022/01/07 02:13:18;;;;;;;13.33;4.30;;;;;;;2.74;80.92;101202.13;5061111;28;20036;-58
2022/01/07 02:15:43;;;;;;;12.40;4.20;;;;;;;2.79;80.41;101203.44;5058558;28;20028;-58
2022/01/07 02:18:09;;;;;;;13.73;3.97;;;;;;;2.82;80.46;101202.38;5059124;28;20031;-58
2022/01/07 02:20:34;;;;;;;14.83;4.17;;;;;;;2.84;80.30;101192.63;5063063;28;20046;-58
2022/01/07 02:23:00;;;;;;;9.93;4.17;;;;;;;2.86;80.17;101197.75;5058722;28;20391;-58
2022/01/07 02:25:26;;;;;;;13.00;4.27;;;;;;;2.87;80.33;101191.56;5052164;28;20029;-58
2022/01/07 02:27:52;;;;;;;9.43;3.33;;;;;;;2.85;80.46;101183.81;5054630;28;20078;-58
2022/01/07 02:30:20;;;;;;;8.23;3.90;;;;;;;2.86;80.30;101184.63;5061282;28;20029;-59
2022/01/07 02:32:46;;;;;;;10.27;3.80;;;;;;;2.85;80.53;101182.97;5072024;28;20023;-58
2022/01/07 02:35:13;;;;;;;12.13;4.03;;;;;;;2.83;80.69;101175.22;5056763;28;20544;-58
2022/01/07 02:37:39;;;;;;;9.77;3.50;;;;;;;2.79;81.01;101168.53;5061886;28;20078;-58
2022/01/07 02:40:06;;;;;;;12.63;4.20;;;;;;;2.64;81.94;101172.28;5066994;28;20038;-58
2022/01/07 02:42:32;;;;;;;11.10;4.13;;;;;;;2.47;82.73;101173.47;5053919;28;20053;-58
2022/01/07 02:44:57;;;;;;;7.70;3.90;;;;;;;2.38;83.71;101174.16;5059721;28;20020;-57
2022/01/07 02:47:24;;;;;;;11.80;4.60;;;;;;;2.32;84.41;101170.19;5060767;28;20036;-58
2022/01/07 02:49:49;;;;;;;9.63;4.30;;;;;;;2.29;84.73;101175.63;5057885;28;20040;-57
2022/01/07 02:52:15;;;;;;;10.40;4.33;;;;;;;2.28;85.33;101167.88;5060131;28;20036;-57
2022/01/07 02:54:40;;;;;;;9.77;4.80;;;;;;;2.23;86.28;101164.75;5056590;28;20078;-56
2022/01/07 02:57:06;;;;;;;11.53;4.70;;;;;;;2.17;86.54;101159.00;5059170;28;20036;-56
2022/01/07 02:59:31;;;;;;;10.07;5.20;;;;;;;2.12;87.23;101165.50;5057419;28;20037;-56
2022/01/07 03:01:57;;;;;;;16.00;5.47;;;;;;;2.06;87.82;101148.44;5057469;28;20020;-57
2022/01/07 03:04:23;;;;;;;12.30;5.00;;;;;;;2.04;88.19;101149.50;5052372;28;20392;-57
2022/01/07 03:06:49;;;;;;;13.43;5.67;;;;;;;2.01;88.59;101152.31;5060189;28;20056;-57
2022/01/07 03:09:14;;;;;;;15.90;5.70;;;;;;;1.98;89.11;101150.75;5057289;28;20507;-57
2022/01/07 03:11:40;;;;;;;13.10;5.20;;;;;;;1.97;89.39;101146.47;5060294;28;20025;-57
2022/01/07 03:14:06;;;;;;;15.90;6.03;;;;;;;1.92;89.51;101143.34;5060067;28;20020;-56
2022/01/07 03:16:31;;;;;;;12.77;5.30;;;;;;;1.88;90.05;101131.41;5057180;28;20044;-56
2022/01/07 03:18:57;;;;;;;15.03;6.10;;;;;;;1.83;90.13;101136.13;5054461;28;20081;-57
2022/01/07 03:21:22;;;;;;;11.17;5.70;;;;;;;1.80;90.29;101129.31;5056378;28;20035;-55
2022/01/07 03:23:47;;;;;;;14.30;6.20;;;;;;;1.78;90.64;101127.75;5055536;28;20024;-57
2022/01/07 03:26:12;;;;;;;13.77;5.93;;;;;;;1.76;90.66;101127.88;5054221;28;20538;-56
2022/01/07 03:28:39;;;;;;;12.40;5.87;;;;;;;1.75;90.83;101130.59;5056536;28;20055;-56
2022/01/07 03:31:04;;;;;;;14.73;5.70;;;;;;;1.73;91.06;101132.47;5057797;28;20033;-57
2022/01/07 03:33:30;;;;;;;13.03;6.23;;;;;;;1.70;91.42;101127.44;5053089;28;20215;-56
2022/01/07 03:35:55;;;;;;;11.73;6.00;;;;;;;1.68;91.51;101139.81;5061487;28;20051;-57
2022/01/07 03:38:20;;;;;;;9.57;5.57;;;;;;;1.65;91.32;101125.16;5062459;28;20158;-57
2022/01/07 03:40:47;;;;;;;10.70;5.80;;;;;;;1.64;91.65;101125.25;5070317;28;20036;-57
2022/01/07 03:43:13;;;;;;;13.03;6.33;;;;;;;1.61;91.93;101120.22;5064067;28;20489;-57
2022/01/07 03:45:38;;;;;;;13.60;6.13;;;;;;;1.63;91.95;101123.59;5056988;28;20025;-57
2022/01/07 03:48:04;;;;;;;14.07;7.10;;;;;;;1.62;92.03;101116.66;5062382;28;20033;-57
2022/01/07 03:50:29;;;;;;;16.87;6.70;;;;;;;1.61;92.12;101110.59;5058423;28;20047;-56
2022/01/07 03:52:57;;;;;;;13.17;6.53;;;;;;;1.61;92.47;101107.97;5064582;28;20032;-57
2022/01/07 03:55:25;;;;;;;13.00;6.30;;;;;;;1.60;92.63;101098.47;5063339;28;20564;-57
2022/01/07 03:57:51;;;;;;;15.20;7.13;;;;;;;1.61;92.64;101100.13;5060595;28;20660;-56
2022/01/07 04:00:33;;;;;;;9.60;6.07;;;;;;;1.62;92.93;101095.72;5064099;28;20518;-57
2022/01/07 04:03:05;;;;;;;13.97;6.53;;;;;;;1.62;92.80;101098.34;5056557;28;20024;-57
2022/01/07 04:05:31;;;;;;;12.53;6.80;;;;;;;1.61;93.21;101101.91;5066711;28;20090;-56
2022/01/07 04:07:56;;;;;;;13.77;7.10;;;;;;;1.59;93.16;101086.31;5053746;28;20036;-57
2022/01/07 04:10:21;;;;;;;14.70;7.23;;;;;;;1.60;93.29;101081.91;5054422;28;20090;-56
2022/01/07 04:12:47;;;;;;;15.43;7.07;;;;;;;1.62;93.48;101087.88;5060241;28;20384;-56
2022/01/07 04:15:12;;;;;;;17.50;7.43;;;;;;;1.64;93.51;101088.59;5056176;28;20032;-56
2022/01/07 04:17:40;;;;;;;14.10;7.40;;;;;;;1.67;93.85;101086.59;5062475;28;20025;-57
2022/01/07 04:20:08;;;;;;;14.67;7.63;;;;;;;1.70;93.88;101078.53;5068373;28;20162;-56
2022/01/07 04:22:34;;;;;;;14.77;7.90;;;;;;;1.74;94.00;101077.41;5066441;28;20031;-56
2022/01/07 04:25:00;;;;;;;15.27;7.93;;;;;;;1.77;94.27;101089.44;5063352;28;20028;-56
2022/01/07 04:27:26;;;;;;;14.47;7.73;;;;;;;1.80;94.24;101073.50;5055605;28;20021;-56
2022/01/07 04:29:51;;;;;;;18.07;8.40;;;;;;;1.84;94.27;101067.94;5062370;28;20383;-57
2022/01/07 04:32:18;;;;;;;15.17;7.97;;;;;;;1.88;94.47;101065.94;5060470;28;20691;-56
2022/01/07 04:34:43;;;;;;;13.40;7.70;;;;;;;1.92;94.52;101072.63;5063276;28;20032;-56
2022/01/07 04:37:08;;;;;;;14.23;7.97;;;;;;;1.95;94.62;101072.41;5061938;28;20408;-57
2022/01/07 04:39:33;;;;;;;14.27;8.23;;;;;;;1.98;94.91;101066.09;5058714;28;20033;-56
2022/01/07 04:41:59;;;;;;;15.27;8.60;;;;;;;2.01;94.88;101071.97;5060344;28;20529;-56
2022/01/07 04:44:25;;;;;;;14.43;8.23;;;;;;;2.05;94.94;101062.97;5057689;28;20112;-57
2022/01/07 04:46:50;;;;;;;13.23;8.10;;;;;;;2.07;94.71;101061.06;5058815;28;20107;-56
2022/01/07 04:49:16;;;;;;;13.03;8.73;;;;;;;2.10;94.97;101063.47;5051987;28;20037;-57
2022/01/07 04:51:41;;;;;;;12.73;8.53;;;;;;;2.14;94.88;101056.22;5059996;28;20032;-57
2022/01/07 04:54:06;;;;;;;15.93;9.13;;;;;;;2.16;95.26;101055.16;5060834;28;20066;-56
2022/01/07 04:56:31;;;;;;;14.23;9.63;;;;;;;2.20;95.34;101052.31;5058162;28;20036;-57
2022/01/07 04:58:57;;;;;;;16.53;9.40;;;;;;;2.26;95.29;101054.47;5064502;28;20107;-56
2022/01/07 05:01:22;;;;;;;15.17;8.90;;;;;;;2.26;94.91;101049.22;5059850;28;20028;-56
2022/01/07 05:03:47;;;;;;;13.77;9.00;;;;;;;2.32;95.17;101048.81;5068749;28;20028;-56
2022/01/07 05:06:43;;;;;;;12.00;9.40;;;;;;;2.35;95.16;101053.81;5058614;28;20040;-56
2022/01/07 05:09:01;;;;;;;14.20;10.00;;;;;;;2.37;95.37;101037.03;5055951;28;20099;-56
2022/01/07 05:11:26;;;;;;;16.67;9.77;;;;;;;2.42;95.24;101036.69;5056443;28;20044;-56
2022/01/07 05:13:51;;;;;;;15.00;9.37;;;;;;;2.45;95.26;101036.47;5063468;28;20032;-56
2022/01/07 05:16:16;;;;;;;15.33;10.47;;;;;;;2.48;95.27;101036.22;5054707;28;20087;-56
2022/01/07 05:18:42;;;;;;;13.33;9.80;;;;;;;2.51;95.14;101027.31;5059418;28;20039;-56
2022/01/07 05:21:07;;;;;;;15.90;10.20;;;;;;;2.53;95.08;101026.22;5064050;28;20500;-57
2022/01/07 05:23:32;;;;;;;13.43;10.33;;;;;;;2.55;95.26;101028.75;5055116;28;20087;-56
2022/01/07 05:25:58;;;;;;;16.03;10.30;;;;;;;2.58;95.52;101031.13;5064313;28;20024;-56
2022/01/07 05:28:23;;;;;;;19.17;10.67;;;;;;;2.60;95.06;101043.19;5059101;28;20036;-57
2022/01/07 05:30:48;;;;;;;15.93;11.07;;;;;;;2.64;95.24;101028.06;5055780;28;20029;-56
2022/01/07 05:33:14;;;;;;;17.97;11.20;;;;;;;2.65;95.38;101033.22;5059189;28;20033;-56
2022/01/07 05:35:39;;;;;;;14.50;10.93;;;;;;;2.67;95.42;101036.53;5064054;28;20031;-56
2022/01/07 05:38:04;;;;;;;18.30;11.80;;;;;;;2.67;95.09;101039.16;5058522;28;20024;-55
2022/01/07 05:40:30;;;;;;;18.47;11.27;;;;;;;2.71;95.45;101034.53;5063677;28;20020;-56
2022/01/07 05:42:55;;;;;;;15.60;11.27;;;;;;;2.73;95.27;101030.00;5056801;28;20031;-56
2022/01/07 05:45:20;;;;;;;16.20;12.27;;;;;;;2.77;95.13;101028.81;5053297;28;20493;-56
2022/01/07 05:47:45;;;;;;;16.90;11.73;;;;;;;2.78;95.18;101035.72;5057515;28;20036;-56
2022/01/07 05:50:11;;;;;;;19.47;12.73;;;;;;;2.80;95.15;101026.78;5060941;28;20021;-56
2022/01/07 05:52:37;;;;;;;17.77;12.70;;;;;;;2.80;95.14;101029.41;5062269;28;20029;-56
2022/01/07 05:55:03;;;;;;;17.43;12.03;;;;;;;2.83;95.21;101024.88;5054981;28;20024;-56
2022/01/07 05:57:28;;;;;;;17.20;12.23;;;;;;;2.85;95.25;101015.13;5062142;28;20048;-56
2022/01/07 05:59:53;;;;;;;19.50;13.10;;;;;;;2.86;95.04;101016.78;5060437;28;20085;-57
2022/01/07 06:02:19;;;;;;;21.13;13.20;;;;;;;2.92;95.13;101013.72;5058518;28;20033;-57
2022/01/07 06:04:44;;;;;;;19.90;12.63;;;;;;;2.92;94.82;101014.56;5063476;28;20082;-56
2022/01/07 06:07:09;;;;;;;19.83;12.47;;;;;;;2.93;94.97;101010.13;5060557;28;20043;-57
2022/01/07 06:09:35;;;;;;;21.60;13.07;;;;;;;2.95;94.84;101023.97;5052789;28;20036;-56
2022/01/07 06:12:01;;;;;;;19.13;12.33;;;;;;;2.97;94.88;101024.69;5060813;28;20025;-57
2022/01/07 06:14:27;;;;;;;19.13;12.70;;;;;;;3.00;94.95;101024.44;5063147;28;20111;-56
2022/01/07 06:16:53;;;;;;;20.37;13.07;;;;;;;3.03;95.07;101026.84;5060611;28;20024;-56
2022/01/07 06:19:18;;;;;;;22.93;12.50;;;;;;;3.04;95.01;101025.88;5064797;28;20036;-57
2022/01/07 06:21:43;;;;;;;24.50;13.13;;;;;;;3.06;94.78;101026.59;5047332;28;20039;-56
2022/01/07 06:24:09;;;;;;;19.40;12.77;;;;;;;3.07;95.02;101021.22;5059373;28;20032;-57
2022/01/07 06:26:34;;;;;;;20.27;13.23;;;;;;;3.09;94.69;101027.19;5060706;28;20021;-57
2022/01/07 06:28:59;;;;;;;22.17;13.13;;;;;;;3.11;94.75;101027.91;5058971;28;20403;-56
2022/01/07 06:31:25;;;;;;;19.90;12.13;;;;;;;3.13;94.56;101024.34;5059751;28;20074;-56
2022/01/07 06:33:50;;;;;;;19.03;12.43;;;;;;;3.14;94.53;101034.72;5059994;28;20029;-60
2022/01/07 06:36:15;;;;;;;19.97;13.50;;;;;;;3.14;94.66;101020.75;5059202;28;20041;-59
2022/01/07 06:38:41;;;;;;;20.00;12.73;;;;;;;3.17;94.71;101023.97;5053659;28;20037;-59
2022/01/07 06:41:06;;;;;;;20.57;12.67;;;;;;;3.19;94.51;101018.63;5055951;28;20059;-58
2022/01/07 06:43:32;;;;;;;23.93;12.53;;;;;;;3.22;94.35;101023.66;5058522;28;20032;-59
2022/01/07 06:45:57;;;;;;;19.97;13.10;;;;;;;3.24;94.10;101019.94;5059470;28;20070;-60
2022/01/07 06:48:22;;;;;;;17.70;12.43;;;;;;;3.25;94.29;101024.22;5058085;28;20504;-59
2022/01/07 06:50:48;;;;;;;19.47;12.80;;;;;;;3.26;94.21;101019.81;5053915;28;20526;-59
2022/01/07 06:53:13;;;;;;;18.70;12.50;;;;;;;3.26;94.53;101018.03;5054114;28;20032;-60
2022/01/07 06:55:38;;;;;;;23.53;13.73;;;;;;;3.26;94.26;101015.41;5056284;28;20028;-59
2022/01/07 06:58:04;;;;;;;22.73;13.77;;;;;;;3.30;94.02;101024.72;5051488;28;20013;-59
2022/01/07 07:00:29;;;;;;;17.53;12.40;;;;;;;3.32;94.41;101021.97;5060809;28;20594;-60
2022/01/07 07:02:54;;;;;;;20.87;12.57;;;;;;;3.35;94.06;101034.84;5054044;28;20044;-59
2022/01/07 07:05:20;;;;;;;19.30;12.47;;;;;;;3.36;94.17;101026.84;5059195;28;20036;-60
2022/01/07 07:07:45;;;;;;;20.37;12.87;;;;;;;3.39;93.89;101037.09;5055413;28;20089;-59
2022/01/07 07:10:10;;;;;;;26.70;12.83;;;;;;;3.40;93.91;101024.81;5055028;28;20156;-60
2022/01/07 07:12:36;;;;;;;21.50;12.80;;;;;;;3.37;93.77;101023.28;5059987;28;20029;-59
2022/01/07 07:15:01;;;;;;;18.87;12.50;;;;;;;3.45;93.84;101040.19;5057397;28;20630;-59
2022/01/07 07:17:26;;;;;;;18.93;11.90;;;;;;;3.46;93.71;101041.88;5059865;28;20035;-59
2022/01/07 07:19:52;;;;;;;22.53;12.37;;;;;;;3.47;93.78;101036.53;5036969;28;20040;-59
2022/01/07 07:22:17;;;;;;;20.30;12.87;;;;;;;3.48;93.87;101037.38;5063373;28;20063;-60
2022/01/07 07:24:42;;;;;;;20.67;13.00;;;;;;;3.47;93.79;101028.66;5058845;28;20464;-59
2022/01/07 07:27:08;;;;;;;22.70;12.57;;;;;;;3.48;93.59;101030.31;5065081;28;20033;-59
2022/01/07 07:29:33;;;;;;;18.43;12.13;;;;;;;3.49;93.77;101039.03;5061686;28;20029;-59
2022/01/07 07:32:03;;;;;;;17.97;12.37;;;;;;;3.50;93.86;101027.56;5060299;28;20032;-60
2022/01/07 07:36:56;;;;;;;21.43;13.27;;;;;;;3.52;93.72;101028.28;5057772;28;20029;-59
2022/01/07 07:39:21;;;;;;;23.20;13.53;;;;;;;3.52;93.82;101026.50;5068189;28;20034;-60
2022/01/07 07:41:48;;;;;;;20.00;12.70;;;;;;;3.55;93.87;101020.16;5062995;28;20028;-60
2022/01/07 07:44:14;;;;;;;19.90;13.10;;;;;;;3.55;93.83;101025.41;5058562;28;20065;-60
2022/01/07 07:46:40;;;;;;;22.73;13.80;;;;;;;3.57;93.61;101013.84;5071088;28;20032;-59
2022/01/07 07:49:06;;;;;;;20.17;12.67;;;;;;;3.60;93.79;101002.25;5059769;28;20477;-60
2022/01/07 07:51:32;;;;;;;20.00;12.53;;;;;;;3.60;93.46;101016.22;5062416;28;20031;-60
2022/01/07 07:53:57;;;;;;;21.27;13.13;;;;;;;3.62;93.66;101000.34;5061911;28;20040;-59
2022/01/07 07:56:26;;;;;;;21.60;12.77;;;;;;;3.63;93.67;101021.22;5062974;28;20052;-59
2022/01/07 07:58:52;;;;;;;21.57;13.13;;;;;;;3.65;93.46;101021.09;5066225;28;20052;-60
2022/01/07 08:01:18;;;;;;;17.50;12.70;;;;;;;3.68;93.45;101020.84;5062067;28;20060;-60
2022/01/07 08:03:44;;;;;;;26.33;13.90;;;;;;;3.70;93.58;101029.44;5067672;28;20032;-59
2022/01/07 08:06:09;;;;;;;22.73;13.30;;;;;;;3.69;93.56;101023.34;5063987;28;20031;-59
2022/01/07 08:08:35;;;;;;;20.27;12.93;;;;;;;3.73;93.58;101034.44;5062647;28;20191;-59
2022/01/07 08:11:04;;;;;;;23.90;13.20;;;;;;;3.74;93.35;101031.69;5060605;28;20025;-59
2022/01/07 08:13:30;;;;;;;19.63;13.13;;;;;;;3.77;93.35;101024.56;5056794;28;20094;-59
2022/01/07 08:16:04;;;;;;;18.97;12.53;;;;;;;3.80;93.54;101032.19;5064572;28;20068;-59
2022/01/07 08:18:37;;;;;;;20.20;12.90;;;;;;;3.80;93.20;101024.31;5062522;28;20060;-60
2022/01/07 08:21:08;;;;;;;21.20;13.73;;;;;;;3.80;93.18;101017.28;5060627;28;20574;-59
2022/01/07 08:23:35;;;;;;;19.43;12.23;;;;;;;3.80;93.32;101004.13;5067262;28;20051;-59
2022/01/07 08:26:03;;;;;;;21.73;12.70;;;;;;;3.82;93.25;101012.72;5056878;28;20051;-59
2022/01/07 08:28:34;;;;;;;20.07;12.83;;;;;;;3.84;93.09;101009.97;5060466;28;20119;-59
2022/01/07 08:36:18;;;;;;;19.23;12.47;;;;;;;3.87;93.08;101026.31;5061740;28;20052;-59
2022/01/07 08:38:44;;;;;;;24.40;12.80;;;;;;;3.88;92.97;101033.25;5057085;28;20121;-60
2022/01/07 08:41:10;;;;;;;21.00;12.17;;;;;;;3.89;93.21;101023.56;5066757;28;20021;-59
2022/01/07 08:43:36;;;;;;;19.93;12.07;;;;;;;3.90;93.14;101026.06;5059813;28;20042;-59
2022/01/07 08:46:04;;;;;;;24.10;12.03;;;;;;;3.92;92.96;101029.41;5060986;28;20082;-60
2022/01/07 08:48:30;;;;;;;18.90;11.90;;;;;;;3.94;92.97;101031.91;5062155;28;20500;-59
2022/01/07 08:50:55;;;;;;;18.73;12.07;;;;;;;3.95;93.03;101028.31;5060558;28;20024;-59
2022/01/07 08:53:21;;;;;;;20.17;11.70;;;;;;;3.96;93.00;101030.00;5060068;28;20031;-60
2022/01/07 08:55:47;;;;;;;18.37;12.03;;;;;;;3.96;92.67;101037.88;5062143;28;20061;-59
2022/01/07 08:58:12;;;;;;;18.30;12.23;;;;;;;3.96;92.79;101038.72;5055575;28;20122;-59
2022/01/07 09:00:37;;;;;;;20.57;11.23;;;;;;;3.97;92.81;101035.13;5057908;28;20025;-59
2022/01/07 09:03:03;;;;;;;19.73;11.73;;;;;;;3.96;92.81;101037.88;5062594;28;20419;-59
2022/01/07 09:05:28;;;;;;;19.67;11.17;;;;;;;3.98;92.97;101035.97;5065021;28;20079;-60
2022/01/07 09:07:54;;;;;;;22.23;11.23;;;;;;;3.97;92.63;101023.78;5057829;28;20029;-59
2022/01/07 09:10:19;;;;;;;19.00;12.10;;;;;;;3.97;92.53;101027.25;5060690;28;20028;-58
2022/01/07 09:12:46;;;;;;;19.23;11.53;;;;;;;3.99;92.93;101029.75;5065115;28;20460;-59
2022/01/07 09:15:12;;;;;;;18.73;11.90;;;;;;;3.98;92.83;101023.66;5057220;28;20024;-59
2022/01/07 09:17:38;;;;;;;25.03;12.77;;;;;;;3.98;92.66;101013.16;5063084;28;20427;-59
2022/01/07 09:20:05;;;;;;;21.53;11.63;;;;;;;4.01;92.61;101020.78;5054624;28;20044;-59
2022/01/07 09:22:30;;;;;;;20.37;11.73;;;;;;;4.02;92.68;101025.06;5053891;28;20025;-59
2022/01/07 09:24:56;;;;;;;22.50;11.43;;;;;;;4.06;92.65;101022.22;5052284;28;20017;-59
2022/01/07 09:27:21;;;;;;;18.83;11.33;;;;;;;4.11;92.68;101025.31;5056847;28;20443;-59
2022/01/07 09:29:46;;;;;;;21.90;11.17;;;;;;;4.14;92.44;101023.28;5055944;28;20032;-59
2022/01/07 09:32:12;;;;;;;16.80;11.47;;;;;;;4.17;92.50;101022.19;5055761;28;20064;-59
2022/01/07 09:34:38;;;;;;;17.20;10.97;;;;;;;4.18;92.41;101024.69;5057289;28;20040;-56
2022/01/07 09:37:04;;;;;;;19.87;11.13;;;;;;;4.23;92.36;101019.03;5062952;28;20031;-55
2022/01/07 09:39:31;;;;;;;20.83;10.13;;;;;;;4.24;92.42;101018.09;5064645;28;20063;-53
2022/01/07 09:41:57;;;;;;;26.37;11.07;;;;;;;4.27;92.09;101025.72;5065530;28;20094;-57
2022/01/07 09:44:22;;;;;;;20.43;10.50;;;;;;;4.27;91.85;101009.94;5053187;28;20484;-57
2022/01/07 09:46:47;;;;;;;19.07;9.73;;;;;;;4.27;92.00;101020.47;5060346;28;20541;-59
2022/01/07 09:49:13;;;;;;;20.30;10.07;;;;;;;4.31;91.76;101016.63;5060789;28;20036;-58
2022/01/07 09:51:40;;;;;;;18.30;10.23;;;;;;;4.34;91.44;101013.75;5063447;28;20036;-57
2022/01/07 09:54:07;;;;;;;14.73;9.40;;;;;;;4.39;91.52;101014.22;5052762;28;20028;-58
2022/01/07 09:56:33;;;;;;;14.83;9.20;;;;;;;4.45;91.38;101011.06;5052001;28;20090;-57
2022/01/07 09:58:58;;;;;;;14.40;8.93;;;;;;;4.52;90.85;101009.59;5058138;28;20442;-58
2022/01/07 10:01:25;;;;;;;19.43;9.47;;;;;;;4.56;90.88;101008.38;5054108;28;20082;-58
2022/01/07 10:03:51;;;;;;;19.90;8.90;;;;;;;4.57;91.07;101020.56;5060393;28;20025;-59
2022/01/07 10:06:23;;;;;;;13.93;8.90;;;;;;;4.59;90.57;101002.84;5061262;28;20033;-58
2022/01/07 10:09:10;;;;;;;19.73;9.37;;;;;;;4.58;90.56;101009.06;5055212;28;20036;-58
2022/01/07 10:11:37;;;;;;;10.23;8.30;;;;;;;4.53;90.61;100994.66;5057573;28;20055;-58
2022/01/07 10:14:30;;;;;;;15.27;8.73;;;;;;;4.50;90.61;100995.75;5049263;28;20755;-58
2022/01/07 10:17:00;;;;;;;18.03;8.80;;;;;;;4.48;91.04;100994.19;5050166;28;20492;-57
2022/01/07 10:19:32;;;;;;;16.70;9.23;;;;;;;4.50;91.01;100995.75;5036497;28;20029;-59
2022/01/07 10:22:08;;;;;;;15.63;9.03;;;;;;;4.55;90.56;101004.06;5057097;28;20146;-58
2022/01/07 10:24:52;;;;;;;17.30;8.97;;;;;;;4.62;90.78;100997.34;5053986;28;20104;-58
2022/01/07 10:27:17;;;;;;;15.43;8.13;;;;;;;4.70;90.47;100993.25;5057859;28;20017;-57
2022/01/07 10:29:44;;;;;;;19.03;8.63;;;;;;;4.75;90.21;100991.06;5062425;28;20031;-59
2022/01/07 10:32:32;;;;;;;14.80;8.53;;;;;;;4.80;90.17;100994.13;5056419;28;20035;-59
2022/01/07 10:35:20;;;;;;;13.53;7.63;;;;;;;4.84;90.07;100982.38;5052534;28;20025;-56
2022/01/07 10:37:50;;;;;;;14.20;7.88;;;;;;;4.88;89.64;100983.78;5055113;28;20484;-57
2022/01/07 10:40:40;;;;;;;12.60;7.28;;;;;;;4.89;89.51;100990.72;5065664;28;20039;-58
2022/01/07 10:43:27;;;;;;;15.63;7.10;;;;;;;4.91;89.46;100980.91;5062804;28;20060;-58
2022/01/07 10:46:11;;;;;;;13.67;6.77;;;;;;;4.98;89.08;100982.06;5064436;28;20026;-58
2022/01/07 10:48:44;;;;;;;15.17;7.13;;;;;;;5.05;89.17;100996.34;5053940;28;20438;-59
2022/01/07 10:51:12;;;;;;;13.77;7.13;;;;;;;5.08;89.25;100987.38;5063123;28;20036;-58
2022/01/07 10:53:38;;;;;;;14.15;6.40;;;;;;;5.10;88.58;100978.38;5054952;28;20036;-58
2022/01/07 10:56:12;;;;;;;12.87;5.87;;;;;;;5.12;88.26;100971.16;5056833;28;20024;-58
2022/01/07 10:58:47;;;;;;;13.80;6.43;;;;;;;5.13;88.15;100974.63;5053799;28;20402;-59
2022/01/07 11:01:19;;;;;;;10.93;5.80;;;;;;;5.14;87.88;100961.34;5064972;28;20064;-58
2022/01/07 11:03:45;;;;;;;9.20;5.53;;;;;;;5.23;87.95;100970.25;5052762;28;20055;-59
2022/01/07 11:06:11;;;;;;;13.67;5.37;;;;;;;5.29;87.54;100959.19;5055725;28;20399;-59
2022/01/07 11:08:36;;;;;;;12.20;5.13;;;;;;;5.33;87.04;100960.59;5064348;28;20078;-58
2022/01/07 11:11:02;;;;;;;10.83;4.40;;;;;;;5.42;86.62;100975.56;5056870;28;20036;-58
2022/01/07 11:13:27;;;;;;;11.37;4.57;;;;;;;5.44;85.93;100962.28;5063770;28;20095;-58
2022/01/07 11:15:52;;;;;;;10.40;4.77;;;;;;;5.42;85.13;100949.25;5057434;28;20056;-59
2022/01/07 11:18:18;;;;;;;11.83;4.97;;;;;;;5.42;85.29;100964.22;5049480;28;20031;-58
2022/01/07 11:20:45;;;;;;;15.07;5.00;;;;;;;5.43;84.96;100963.25;5054896;28;20025;-59
2022/01/07 11:23:10;;;;;;;12.73;5.63;;;;;;;5.42;84.94;100967.66;5054476;28;20056;-59
2022/01/07 11:25:36;;;;;;;10.33;5.00;;;;;;;5.41;85.04;100960.75;5055759;28;20341;-58
2022/01/07 11:28:01;;;;;;;11.50;5.23;;;;;;;5.39;84.75;100964.47;5065263;28;20026;-59